sensor_id;sensor_type;location;lat;lon;timestamp;temperature;humidity
4896;DHT22;2463;49.948;8.472;2023-12-22T00:01:24;6.10;99.90
4896;DHT22;2463;49.948;8.472;2023-12-22T00:03:51;6.00;99.90
4896;DHT22;2463;49.948;8.472;2023-12-22T00:06:18;5.90;99.90
4896;DHT22;2463;49.948;8.472;2023-12-22T00:08:45;5.90;99.90
4896;DHT22;2463;49.948;8.472;2023-12-22T00:11:11;5.90;99.90
4896;DHT22;2463;49.948;8.472;2023-12-22T00:13:38;5.90;99.90
4896;DHT22;2463;49.948;8.472;2023-12-22T00:16:05;5.90;99.90
4896;DHT22;2463;49.948;8.472;2023-12-22T00:18:32;5.80;99.90
4896;DHT22;2463;49.948;8.472;2023-12-22T00:20:59;5.80;99.90
4896;DHT22;2463;49.948;8.472;2023-12-22T00:23:25;5.60;99.90
4896;DHT22;2463;49.948;8.472;2023-12-22T00:25:52;5.60;99.90
4896;DHT22;2463;49.948;8.472;2023-12-22T00:28:19;5.60;99.90
4896;DHT22;2463;49.948;8.472;2023-12-22T00:30:45;5.50;99.90
4896;DHT22;2463;49.948;8.472;2023-12-22T00:33:12;5.50;99.90
4896;DHT22;2463;49.948;8.472;2023-12-22T00:35:39;5.40;99.90
4896;DHT22;2463;49.948;8.472;2023-12-22T00:38:05;5.40;99.90
4896;DHT22;2463;49.948;8.472;2023-12-22T00:40:32;5.40;99.90
4896;DHT22;2463;49.948;8.472;2023-12-22T00:42:59;5.40;99.90
4896;DHT22;2463;49.948;8.472;2023-12-22T00:45:25;5.40;99.90
4896;DHT22;2463;49.948;8.472;2023-12-22T00:47:53;5.50;99.90
4896;DHT22;2463;49.948;8.472;2023-12-22T00:50:20;5.50;99.90
4896;DHT22;2463;49.948;8.472;2023-12-22T00:52:47;5.60;99.90
4896;DHT22;2463;49.948;8.472;2023-12-22T00:55:13;5.70;99.90
4896;DHT22;2463;49.948;8.472;2023-12-22T00:57:40;5.80;99.90
4896;DHT22;2463;49.948;8.472;2023-12-22T01:00:07;5.90;99.90
4896;DHT22;2463;49.948;8.472;2023-12-22T01:02:37;6.00;99.90
4896;DHT22;2463;49.948;8.472;2023-12-22T01:05:04;6.10;99.90
4896;DHT22;2463;49.948;8.472;2023-12-22T01:07:31;6.20;99.90
4896;DHT22;2463;49.948;8.472;2023-12-22T01:09:58;6.30;99.90
4896;DHT22;2463;49.948;8.472;2023-12-22T01:12:28;6.40;99.90
4896;DHT22;2463;49.948;8.472;2023-12-22T01:14:56;6.20;99.90
4896;DHT22;2463;49.948;8.472;2023-12-22T01:17:23;6.30;99.90
4896;DHT22;2463;49.948;8.472;2023-12-22T01:19:49;6.30;99.90
4896;DHT22;2463;49.948;8.472;2023-12-22T01:22:17;6.40;99.90
4896;DHT22;2463;49.948;8.472;2023-12-22T01:24:44;6.50;99.90
4896;DHT22;2463;49.948;8.472;2023-12-22T01:27:12;6.50;99.90
4896;DHT22;2463;49.948;8.472;2023-12-22T01:29:39;6.60;99.90
4896;DHT22;2463;49.948;8.472;2023-12-22T01:32:05;6.60;99.90
4896;DHT22;2463;49.948;8.472;2023-12-22T01:34:32;6.70;99.90
4896;DHT22;2463;49.948;8.472;2023-12-22T01:36:59;6.70;99.90
4896;DHT22;2463;49.948;8.472;2023-12-22T01:39:26;6.70;99.90
4896;DHT22;2463;49.948;8.472;2023-12-22T01:41:52;6.80;99.90
4896;DHT22;2463;49.948;8.472;2023-12-22T01:44:19;6.70;99.90
4896;DHT22;2463;49.948;8.472;2023-12-22T01:46:46;6.70;99.90
4896;DHT22;2463;49.948;8.472;2023-12-22T01:49:13;6.70;99.90
4896;DHT22;2463;49.948;8.472;2023-12-22T01:51:41;6.70;99.90
4896;DHT22;2463;49.948;8.472;2023-12-22T01:54:08;6.70;99.90
4896;DHT22;2463;49.948;8.472;2023-12-22T01:56:36;6.70;99.90
4896;DHT22;2463;49.948;8.472;2023-12-22T01:59:03;6.60;99.90
4896;DHT22;2463;49.948;8.472;2023-12-22T02:01:29;6.60;99.90
4896;DHT22;2463;49.948;8.472;2023-12-22T02:03:59;6.50;99.90
4896;DHT22;2463;49.948;8.472;2023-12-22T02:06:26;6.60;99.90
4896;DHT22;2463;49.948;8.472;2023-12-22T02:08:54;6.50;99.90
4896;DHT22;2463;49.948;8.472;2023-12-22T02:11:20;6.50;99.90
4896;DHT22;2463;49.948;8.472;2023-12-22T02:13:47;6.60;99.90
4896;DHT22;2463;49.948;8.472;2023-12-22T02:19:43;6.60;99.90
4896;DHT22;2463;49.948;8.472;2023-12-22T02:22:11;6.50;99.90
4896;DHT22;2463;49.948;8.472;2023-12-22T02:24:39;6.50;99.90
4896;DHT22;2463;49.948;8.472;2023-12-22T02:27:23;6.50;99.90
4896;DHT22;2463;49.948;8.472;2023-12-22T02:32:50;6.50;99.90
4896;DHT22;2463;49.948;8.472;2023-12-22T02:35:20;6.50;99.90
4896;DHT22;2463;49.948;8.472;2023-12-22T02:37:49;6.60;99.90
4896;DHT22;2463;49.948;8.472;2023-12-22T02:40:17;6.60;99.90
4896;DHT22;2463;49.948;8.472;2023-12-22T02:42:44;6.50;99.90
4896;DHT22;2463;49.948;8.472;2023-12-22T02:45:15;6.50;99.90
4896;DHT22;2463;49.948;8.472;2023-12-22T02:47:43;6.50;99.90
4896;DHT22;2463;49.948;8.472;2023-12-22T02:50:10;6.50;99.90
4896;DHT22;2463;49.948;8.472;2023-12-22T02:52:37;6.40;99.90
4896;DHT22;2463;49.948;8.472;2023-12-22T02:55:04;6.40;99.90
4896;DHT22;2463;49.948;8.472;2023-12-22T02:57:31;6.40;99.90
4896;DHT22;2463;49.948;8.472;2023-12-22T02:59:58;6.50;99.90
4896;DHT22;2463;49.948;8.472;2023-12-22T03:02:25;6.50;99.90
4896;DHT22;2463;49.948;8.472;2023-12-22T03:04:52;6.50;99.90
4896;DHT22;2463;49.948;8.472;2023-12-22T03:07:18;6.40;99.90
4896;DHT22;2463;49.948;8.472;2023-12-22T03:09:45;6.40;99.90
4896;DHT22;2463;49.948;8.472;2023-12-22T03:12:12;6.40;99.90
4896;DHT22;2463;49.948;8.472;2023-12-22T03:14:38;6.40;99.90
4896;DHT22;2463;49.948;8.472;2023-12-22T03:17:06;8.30;99.90
4896;DHT22;2463;49.948;8.472;2023-12-22T03:19:33;6.50;99.90
4896;DHT22;2463;49.948;8.472;2023-12-22T03:22:00;6.50;99.90
4896;DHT22;2463;49.948;8.472;2023-12-22T03:24:27;6.50;99.90
4896;DHT22;2463;49.948;8.472;2023-12-22T03:26:55;6.50;99.90
4896;DHT22;2463;49.948;8.472;2023-12-22T03:29:22;6.60;99.90
4896;DHT22;2463;49.948;8.472;2023-12-22T03:31:49;6.60;99.90
4896;DHT22;2463;49.948;8.472;2023-12-22T03:34:16;6.70;99.90
4896;DHT22;2463;49.948;8.472;2023-12-22T03:36:42;6.70;99.90
4896;DHT22;2463;49.948;8.472;2023-12-22T03:39:09;6.70;99.90
4896;DHT22;2463;49.948;8.472;2023-12-22T03:41:36;6.70;99.90
4896;DHT22;2463;49.948;8.472;2023-12-22T03:44:02;6.70;99.90
4896;DHT22;2463;49.948;8.472;2023-12-22T03:46:29;6.70;99.90
4896;DHT22;2463;49.948;8.472;2023-12-22T03:48:56;6.80;99.90
4896;DHT22;2463;49.948;8.472;2023-12-22T03:51:22;6.70;99.90
4896;DHT22;2463;49.948;8.472;2023-12-22T03:53:49;6.70;99.90
4896;DHT22;2463;49.948;8.472;2023-12-22T03:56:16;6.70;99.90
4896;DHT22;2463;49.948;8.472;2023-12-22T03:58:43;6.80;99.90
4896;DHT22;2463;49.948;8.472;2023-12-22T04:01:14;6.70;99.90
4896;DHT22;2463;49.948;8.472;2023-12-22T04:03:41;6.60;99.90
4896;DHT22;2463;49.948;8.472;2023-12-22T04:06:07;6.60;99.90
4896;DHT22;2463;49.948;8.472;2023-12-22T04:08:34;6.60;99.90
4896;DHT22;2463;49.948;8.472;2023-12-22T04:11:01;6.50;99.90
4896;DHT22;2463;49.948;8.472;2023-12-22T04:13:27;6.50;99.90
4896;DHT22;2463;49.948;8.472;2023-12-22T04:15:54;6.40;99.90
4896;DHT22;2463;49.948;8.472;2023-12-22T04:18:20;6.40;99.90
4896;DHT22;2463;49.948;8.472;2023-12-22T04:20:47;6.40;99.90
4896;DHT22;2463;49.948;8.472;2023-12-22T04:23:18;6.40;99.90
4896;DHT22;2463;49.948;8.472;2023-12-22T04:25:44;6.40;99.90
4896;DHT22;2463;49.948;8.472;2023-12-22T04:28:11;6.50;99.90
4896;DHT22;2463;49.948;8.472;2023-12-22T04:30:38;6.60;99.90
4896;DHT22;2463;49.948;8.472;2023-12-22T04:33:04;6.70;99.90
4896;DHT22;2463;49.948;8.472;2023-12-22T04:35:31;6.70;99.90
4896;DHT22;2463;49.948;8.472;2023-12-22T04:37:58;6.70;99.90
4896;DHT22;2463;49.948;8.472;2023-12-22T04:40:24;6.80;99.90
4896;DHT22;2463;49.948;8.472;2023-12-22T04:42:51;6.80;99.90
4896;DHT22;2463;49.948;8.472;2023-12-22T04:45:18;6.80;99.90
4896;DHT22;2463;49.948;8.472;2023-12-22T04:47:45;6.90;99.90
4896;DHT22;2463;49.948;8.472;2023-12-22T04:50:12;6.90;99.90
4896;DHT22;2463;49.948;8.472;2023-12-22T04:52:38;7.00;99.90
4896;DHT22;2463;49.948;8.472;2023-12-22T04:55:05;7.00;99.90
4896;DHT22;2463;49.948;8.472;2023-12-22T04:57:32;7.10;99.90
4896;DHT22;2463;49.948;8.472;2023-12-22T04:59:59;7.00;99.90
4896;DHT22;2463;49.948;8.472;2023-12-22T05:02:25;7.00;99.90
4896;DHT22;2463;49.948;8.472;2023-12-22T05:04:52;7.10;99.90
4896;DHT22;2463;49.948;8.472;2023-12-22T05:07:19;7.10;99.90
4896;DHT22;2463;49.948;8.472;2023-12-22T05:09:45;7.10;99.90
4896;DHT22;2463;49.948;8.472;2023-12-22T05:12:12;7.20;99.90
4896;DHT22;2463;49.948;8.472;2023-12-22T05:14:38;7.20;99.90
4896;DHT22;2463;49.948;8.472;2023-12-22T05:17:05;7.30;99.90
4896;DHT22;2463;49.948;8.472;2023-12-22T05:19:32;7.30;99.90
4896;DHT22;2463;49.948;8.472;2023-12-22T05:21:58;7.30;99.90
4896;DHT22;2463;49.948;8.472;2023-12-22T05:24:26;7.30;99.90
4896;DHT22;2463;49.948;8.472;2023-12-22T05:26:53;7.20;99.90
4896;DHT22;2463;49.948;8.472;2023-12-22T05:29:19;7.10;99.90
4896;DHT22;2463;49.948;8.472;2023-12-22T05:31:46;7.00;99.90
4896;DHT22;2463;49.948;8.472;2023-12-22T05:34:13;6.90;99.90
4896;DHT22;2463;49.948;8.472;2023-12-22T05:36:39;6.80;99.90
4896;DHT22;2463;49.948;8.472;2023-12-22T05:39:06;6.80;99.90
4896;DHT22;2463;49.948;8.472;2023-12-22T05:41:36;6.70;99.90
4896;DHT22;2463;49.948;8.472;2023-12-22T05:44:05;6.70;99.90
4896;DHT22;2463;49.948;8.472;2023-12-22T05:46:36;6.60;99.90
4896;DHT22;2463;49.948;8.472;2023-12-22T05:49:05;6.70;99.90
4896;DHT22;2463;49.948;8.472;2023-12-22T05:51:40;6.70;99.90
4896;DHT22;2463;49.948;8.472;2023-12-22T05:54:08;6.70;99.90
4896;DHT22;2463;49.948;8.472;2023-12-22T05:56:35;6.80;99.90
4896;DHT22;2463;49.948;8.472;2023-12-22T05:59:01;6.80;99.90
4896;DHT22;2463;49.948;8.472;2023-12-22T06:01:31;6.90;99.90
4896;DHT22;2463;49.948;8.472;2023-12-22T06:03:57;6.90;99.90
4896;DHT22;2463;49.948;8.472;2023-12-22T06:06:24;7.00;99.90
4896;DHT22;2463;49.948;8.472;2023-12-22T06:08:51;7.00;99.90
4896;DHT22;2463;49.948;8.472;2023-12-22T06:11:17;7.00;99.90
4896;DHT22;2463;49.948;8.472;2023-12-22T06:13:44;7.00;99.90
4896;DHT22;2463;49.948;8.472;2023-12-22T06:16:14;6.90;99.90
4896;DHT22;2463;49.948;8.472;2023-12-22T06:18:41;6.90;99.90
4896;DHT22;2463;49.948;8.472;2023-12-22T06:21:09;6.80;99.90
4896;DHT22;2463;49.948;8.472;2023-12-22T06:23:37;6.80;99.90
4896;DHT22;2463;49.948;8.472;2023-12-22T06:26:10;6.70;99.90
4896;DHT22;2463;49.948;8.472;2023-12-22T06:28:38;6.70;99.90
4896;DHT22;2463;49.948;8.472;2023-12-22T06:31:07;6.60;99.90
4896;DHT22;2463;49.948;8.472;2023-12-22T06:33:34;6.60;99.90
4896;DHT22;2463;49.948;8.472;2023-12-22T06:36:00;6.60;99.90
4896;DHT22;2463;49.948;8.472;2023-12-22T06:38:27;6.60;99.90
4896;DHT22;2463;49.948;8.472;2023-12-22T06:40:54;6.60;99.90
4896;DHT22;2463;49.948;8.472;2023-12-22T06:43:21;6.60;99.90
4896;DHT22;2463;49.948;8.472;2023-12-22T06:45:48;6.60;99.90
4896;DHT22;2463;49.948;8.472;2023-12-22T06:48:15;6.60;99.90
4896;DHT22;2463;49.948;8.472;2023-12-22T06:50:41;6.60;99.90
4896;DHT22;2463;49.948;8.472;2023-12-22T06:53:11;6.60;99.90
4896;DHT22;2463;49.948;8.472;2023-12-22T06:55:51;6.60;99.90
4896;DHT22;2463;49.948;8.472;2023-12-22T06:58:18;6.60;99.90
4896;DHT22;2463;49.948;8.472;2023-12-22T07:00:47;6.60;99.90
4896;DHT22;2463;49.948;8.472;2023-12-22T07:03:14;6.60;99.90
4896;DHT22;2463;49.948;8.472;2023-12-22T07:05:42;6.50;99.90
4896;DHT22;2463;49.948;8.472;2023-12-22T07:08:09;6.60;99.90
4896;DHT22;2463;49.948;8.472;2023-12-22T07:10:36;6.60;99.90
4896;DHT22;2463;49.948;8.472;2023-12-22T07:13:03;6.70;99.90
4896;DHT22;2463;49.948;8.472;2023-12-22T07:15:31;6.80;99.90
4896;DHT22;2463;49.948;8.472;2023-12-22T07:17:58;6.80;99.90
4896;DHT22;2463;49.948;8.472;2023-12-22T07:20:25;6.90;99.90
4896;DHT22;2463;49.948;8.472;2023-12-22T07:22:52;6.90;99.90
4896;DHT22;2463;49.948;8.472;2023-12-22T07:25:22;7.00;99.90
4896;DHT22;2463;49.948;8.472;2023-12-22T07:27:48;7.10;99.90
4896;DHT22;2463;49.948;8.472;2023-12-22T07:30:16;7.10;99.90
4896;DHT22;2463;49.948;8.472;2023-12-22T07:32:44;7.20;99.90
4896;DHT22;2463;49.948;8.472;2023-12-22T07:35:14;7.30;99.90
4896;DHT22;2463;49.948;8.472;2023-12-22T07:37:43;7.40;99.90
4896;DHT22;2463;49.948;8.472;2023-12-22T07:40:11;7.50;99.90
4896;DHT22;2463;49.948;8.472;2023-12-22T07:42:38;7.60;99.90
4896;DHT22;2463;49.948;8.472;2023-12-22T07:45:05;7.60;99.90
4896;DHT22;2463;49.948;8.472;2023-12-22T07:47:33;7.70;99.90
4896;DHT22;2463;49.948;8.472;2023-12-22T07:50:00;7.80;99.90
4896;DHT22;2463;49.948;8.472;2023-12-22T07:52:29;7.80;99.90
4896;DHT22;2463;49.948;8.472;2023-12-22T07:54:56;7.80;99.90
4896;DHT22;2463;49.948;8.472;2023-12-22T07:57:23;7.80;99.90
4896;DHT22;2463;49.948;8.472;2023-12-22T07:59:50;7.80;99.90
4896;DHT22;2463;49.948;8.472;2023-12-22T08:02:16;7.90;99.90
4896;DHT22;2463;49.948;8.472;2023-12-22T08:04:43;7.90;99.90
4896;DHT22;2463;49.948;8.472;2023-12-22T08:07:10;7.90;99.90
4896;DHT22;2463;49.948;8.472;2023-12-22T08:09:36;8.00;99.90
4896;DHT22;2463;49.948;8.472;2023-12-22T08:12:03;8.00;99.90
4896;DHT22;2463;49.948;8.472;2023-12-22T08:14:31;8.00;99.90
4896;DHT22;2463;49.948;8.472;2023-12-22T08:16:57;8.10;99.90
4896;DHT22;2463;49.948;8.472;2023-12-22T08:19:24;8.10;99.90
4896;DHT22;2463;49.948;8.472;2023-12-22T08:21:56;8.10;99.90
4896;DHT22;2463;49.948;8.472;2023-12-22T08:24:24;8.20;99.90
4896;DHT22;2463;49.948;8.472;2023-12-22T08:26:51;8.20;99.90
4896;DHT22;2463;49.948;8.472;2023-12-22T08:29:18;8.20;99.90
4896;DHT22;2463;49.948;8.472;2023-12-22T08:31:48;8.20;99.90
4896;DHT22;2463;49.948;8.472;2023-12-22T08:34:15;8.20;99.90
4896;DHT22;2463;49.948;8.472;2023-12-22T08:36:41;8.20;99.90
4896;DHT22;2463;49.948;8.472;2023-12-22T08:39:09;8.10;99.90
4896;DHT22;2463;49.948;8.472;2023-12-22T08:41:37;8.00;99.90
4896;DHT22;2463;49.948;8.472;2023-12-22T08:44:06;8.00;99.90
4896;DHT22;2463;49.948;8.472;2023-12-22T08:46:34;8.00;99.90
4896;DHT22;2463;49.948;8.472;2023-12-22T08:49:02;8.00;99.90
4896;DHT22;2463;49.948;8.472;2023-12-22T08:51:29;8.10;99.90
4896;DHT22;2463;49.948;8.472;2023-12-22T08:53:55;8.10;99.90
4896;DHT22;2463;49.948;8.472;2023-12-22T08:56:23;8.20;99.90
4896;DHT22;2463;49.948;8.472;2023-12-22T08:58:51;8.20;99.90
4896;DHT22;2463;49.948;8.472;2023-12-22T09:01:19;8.30;99.90
4896;DHT22;2463;49.948;8.472;2023-12-22T09:03:46;8.30;99.90
4896;DHT22;2463;49.948;8.472;2023-12-22T09:06:17;8.40;99.90
4896;DHT22;2463;49.948;8.472;2023-12-22T09:08:44;8.40;99.90
4896;DHT22;2463;49.948;8.472;2023-12-22T09:11:12;8.40;99.90
4896;DHT22;2463;49.948;8.472;2023-12-22T09:13:39;8.50;99.90
4896;DHT22;2463;49.948;8.472;2023-12-22T09:16:06;8.40;99.90
4896;DHT22;2463;49.948;8.472;2023-12-22T09:18:33;8.50;99.90
4896;DHT22;2463;49.948;8.472;2023-12-22T09:21:00;8.50;99.90
4896;DHT22;2463;49.948;8.472;2023-12-22T09:23:27;8.50;99.90
4896;DHT22;2463;49.948;8.472;2023-12-22T09:25:54;8.50;99.90
4896;DHT22;2463;49.948;8.472;2023-12-22T09:28:21;8.50;99.90
4896;DHT22;2463;49.948;8.472;2023-12-22T09:30:48;8.50;99.90
4896;DHT22;2463;49.948;8.472;2023-12-22T09:33:14;8.40;99.90
4896;DHT22;2463;49.948;8.472;2023-12-22T09:35:42;8.40;99.90
4896;DHT22;2463;49.948;8.472;2023-12-22T09:38:10;8.30;99.90
4896;DHT22;2463;49.948;8.472;2023-12-22T09:40:37;8.30;99.90
4896;DHT22;2463;49.948;8.472;2023-12-22T09:43:06;8.30;99.90
4896;DHT22;2463;49.948;8.472;2023-12-22T09:45:33;8.30;99.90
4896;DHT22;2463;49.948;8.472;2023-12-22T09:48:01;8.30;99.90
4896;DHT22;2463;49.948;8.472;2023-12-22T09:50:29;8.40;99.90
4896;DHT22;2463;49.948;8.472;2023-12-22T09:52:56;8.40;99.90
4896;DHT22;2463;49.948;8.472;2023-12-22T09:55:25;8.40;99.90
4896;DHT22;2463;49.948;8.472;2023-12-22T09:57:54;8.40;99.90
4896;DHT22;2463;49.948;8.472;2023-12-22T10:00:22;8.50;99.90
4896;DHT22;2463;49.948;8.472;2023-12-22T10:02:50;8.50;99.90
4896;DHT22;2463;49.948;8.472;2023-12-22T10:05:16;8.60;99.90
4896;DHT22;2463;49.948;8.472;2023-12-22T10:07:46;8.70;99.90
4896;DHT22;2463;49.948;8.472;2023-12-22T10:10:14;8.70;99.90
4896;DHT22;2463;49.948;8.472;2023-12-22T10:12:44;8.80;99.90
4896;DHT22;2463;49.948;8.472;2023-12-22T10:15:12;8.80;99.90
4896;DHT22;2463;49.948;8.472;2023-12-22T10:17:39;8.80;99.90
4896;DHT22;2463;49.948;8.472;2023-12-22T10:20:07;8.90;99.90
4896;DHT22;2463;49.948;8.472;2023-12-22T10:22:35;9.00;99.90
4896;DHT22;2463;49.948;8.472;2023-12-22T10:25:01;9.10;99.90
4896;DHT22;2463;49.948;8.472;2023-12-22T10:27:29;9.20;99.90
4896;DHT22;2463;49.948;8.472;2023-12-22T10:29:56;9.30;99.90
4896;DHT22;2463;49.948;8.472;2023-12-22T10:32:23;9.40;99.90
4896;DHT22;2463;49.948;8.472;2023-12-22T10:34:53;9.50;99.90
4896;DHT22;2463;49.948;8.472;2023-12-22T10:37:21;9.50;99.90
4896;DHT22;2463;49.948;8.472;2023-12-22T10:39:54;9.50;99.90
4896;DHT22;2463;49.948;8.472;2023-12-22T10:42:21;9.60;99.90
4896;DHT22;2463;49.948;8.472;2023-12-22T10:44:48;9.60;99.90
4896;DHT22;2463;49.948;8.472;2023-12-22T10:47:18;9.60;99.90
4896;DHT22;2463;49.948;8.472;2023-12-22T10:49:47;9.60;99.90
4896;DHT22;2463;49.948;8.472;2023-12-22T10:52:18;9.60;99.90
4896;DHT22;2463;49.948;8.472;2023-12-22T10:54:45;9.60;99.90
4896;DHT22;2463;49.948;8.472;2023-12-22T10:57:12;9.70;99.90
4896;DHT22;2463;49.948;8.472;2023-12-22T10:59:45;9.80;99.90
4896;DHT22;2463;49.948;8.472;2023-12-22T11:02:28;9.80;99.90
4896;DHT22;2463;49.948;8.472;2023-12-22T11:05:03;9.80;99.90
4896;DHT22;2463;49.948;8.472;2023-12-22T11:07:35;9.80;99.90
4896;DHT22;2463;49.948;8.472;2023-12-22T11:10:06;9.80;99.90
4896;DHT22;2463;49.948;8.472;2023-12-22T11:12:37;9.80;99.90
4896;DHT22;2463;49.948;8.472;2023-12-22T11:15:05;9.80;99.90
4896;DHT22;2463;49.948;8.472;2023-12-22T11:17:33;9.90;99.90
4896;DHT22;2463;49.948;8.472;2023-12-22T11:20:03;9.90;99.90
4896;DHT22;2463;49.948;8.472;2023-12-22T11:22:31;9.90;99.90
4896;DHT22;2463;49.948;8.472;2023-12-22T11:25:00;9.90;99.90
4896;DHT22;2463;49.948;8.472;2023-12-22T11:27:29;9.90;99.90
4896;DHT22;2463;49.948;8.472;2023-12-22T11:29:56;9.90;99.90
4896;DHT22;2463;49.948;8.472;2023-12-22T11:32:25;9.90;99.90
4896;DHT22;2463;49.948;8.472;2023-12-22T11:34:53;10.00;99.90
4896;DHT22;2463;49.948;8.472;2023-12-22T11:37:21;10.00;99.90
4896;DHT22;2463;49.948;8.472;2023-12-22T11:39:48;10.00;99.90
4896;DHT22;2463;49.948;8.472;2023-12-22T11:42:18;10.00;99.90
4896;DHT22;2463;49.948;8.472;2023-12-22T11:44:46;10.00;99.90
4896;DHT22;2463;49.948;8.472;2023-12-22T11:47:14;10.00;99.90
4896;DHT22;2463;49.948;8.472;2023-12-22T11:49:41;10.00;99.90
4896;DHT22;2463;49.948;8.472;2023-12-22T11:52:16;9.90;99.90
4896;DHT22;2463;49.948;8.472;2023-12-22T11:54:45;9.90;99.90
4896;DHT22;2463;49.948;8.472;2023-12-22T12:00:05;9.80;99.90
4896;DHT22;2463;49.948;8.472;2023-12-22T12:02:37;9.70;99.90
4896;DHT22;2463;49.948;8.472;2023-12-22T12:05:07;9.70;99.90
4896;DHT22;2463;49.948;8.472;2023-12-22T12:07:45;9.70;99.90
4896;DHT22;2463;49.948;8.472;2023-12-22T12:13:06;9.60;99.90
4896;DHT22;2463;49.948;8.472;2023-12-22T12:15:34;9.60;99.90
4896;DHT22;2463;49.948;8.472;2023-12-22T12:18:02;9.60;99.90
4896;DHT22;2463;49.948;8.472;2023-12-22T12:20:29;9.60;99.90
4896;DHT22;2463;49.948;8.472;2023-12-22T12:22:56;9.70;99.90
4896;DHT22;2463;49.948;8.472;2023-12-22T12:25:25;9.70;99.90
4896;DHT22;2463;49.948;8.472;2023-12-22T12:28:05;9.70;99.90
4896;DHT22;2463;49.948;8.472;2023-12-22T12:30:37;9.60;99.90
4896;DHT22;2463;49.948;8.472;2023-12-22T12:33:09;9.60;99.90
4896;DHT22;2463;49.948;8.472;2023-12-22T12:35:40;9.70;99.90
4896;DHT22;2463;49.948;8.472;2023-12-22T12:38:12;9.70;99.90
4896;DHT22;2463;49.948;8.472;2023-12-22T12:40:40;9.70;99.90
4896;DHT22;2463;49.948;8.472;2023-12-22T12:43:08;9.80;99.90
4896;DHT22;2463;49.948;8.472;2023-12-22T12:45:34;9.80;99.90
4896;DHT22;2463;49.948;8.472;2023-12-22T12:48:02;9.90;99.90
4896;DHT22;2463;49.948;8.472;2023-12-22T12:50:33;9.90;99.90
4896;DHT22;2463;49.948;8.472;2023-12-22T12:53:01;9.90;99.90
4896;DHT22;2463;49.948;8.472;2023-12-22T12:55:28;10.00;99.90
4896;DHT22;2463;49.948;8.472;2023-12-22T12:57:56;10.10;99.90
4896;DHT22;2463;49.948;8.472;2023-12-22T13:00:27;10.10;99.90
4896;DHT22;2463;49.948;8.472;2023-12-22T13:03:04;10.10;99.90
4896;DHT22;2463;49.948;8.472;2023-12-22T13:05:32;10.10;99.90
4896;DHT22;2463;49.948;8.472;2023-12-22T13:08:08;10.10;99.90
4896;DHT22;2463;49.948;8.472;2023-12-22T13:10:35;10.20;99.90
4896;DHT22;2463;49.948;8.472;2023-12-22T13:13:02;10.20;99.90
4896;DHT22;2463;49.948;8.472;2023-12-22T13:15:30;10.30;99.90
4896;DHT22;2463;49.948;8.472;2023-12-22T13:17:56;10.30;99.90
4896;DHT22;2463;49.948;8.472;2023-12-22T13:20:24;10.30;99.90
4896;DHT22;2463;49.948;8.472;2023-12-22T13:22:51;10.40;99.90
4896;DHT22;2463;49.948;8.472;2023-12-22T13:25:17;10.50;99.90
4896;DHT22;2463;49.948;8.472;2023-12-22T13:27:48;10.60;99.90
4896;DHT22;2463;49.948;8.472;2023-12-22T13:30:38;10.70;99.90
4896;DHT22;2463;49.948;8.472;2023-12-22T13:33:08;10.80;99.90
4896;DHT22;2463;49.948;8.472;2023-12-22T13:35:36;10.80;99.90
4896;DHT22;2463;49.948;8.472;2023-12-22T13:38:08;10.80;99.90
4896;DHT22;2463;49.948;8.472;2023-12-22T13:40:36;10.80;99.90
4896;DHT22;2463;49.948;8.472;2023-12-22T13:43:05;10.90;99.90
4896;DHT22;2463;49.948;8.472;2023-12-22T13:45:33;10.90;99.90
4896;DHT22;2463;49.948;8.472;2023-12-22T13:48:00;10.80;99.90
4896;DHT22;2463;49.948;8.472;2023-12-22T13:50:27;10.80;99.90
4896;DHT22;2463;49.948;8.472;2023-12-22T13:52:54;10.80;99.90
4896;DHT22;2463;49.948;8.472;2023-12-22T13:55:21;10.80;99.90
4896;DHT22;2463;49.948;8.472;2023-12-22T13:57:59;10.80;99.90
4896;DHT22;2463;49.948;8.472;2023-12-22T14:00:30;10.80;99.90
4896;DHT22;2463;49.948;8.472;2023-12-22T14:02:58;10.70;99.90
4896;DHT22;2463;49.948;8.472;2023-12-22T14:05:25;10.80;99.90
4896;DHT22;2463;49.948;8.472;2023-12-22T14:07:53;10.80;99.90
4896;DHT22;2463;49.948;8.472;2023-12-22T14:10:21;10.80;99.90
4896;DHT22;2463;49.948;8.472;2023-12-22T14:12:48;10.80;99.90
4896;DHT22;2463;49.948;8.472;2023-12-22T14:15:15;10.80;99.90
4896;DHT22;2463;49.948;8.472;2023-12-22T14:17:41;10.70;99.90
4896;DHT22;2463;49.948;8.472;2023-12-22T14:20:09;10.70;99.90
4896;DHT22;2463;49.948;8.472;2023-12-22T14:22:37;10.70;99.90
4896;DHT22;2463;49.948;8.472;2023-12-22T14:25:05;10.70;99.90
4896;DHT22;2463;49.948;8.472;2023-12-22T14:27:32;10.80;99.90
4896;DHT22;2463;49.948;8.472;2023-12-22T14:29:58;10.80;99.90
4896;DHT22;2463;49.948;8.472;2023-12-22T14:32:25;10.80;99.90
4896;DHT22;2463;49.948;8.472;2023-12-22T14:34:52;10.80;99.90
4896;DHT22;2463;49.948;8.472;2023-12-22T14:37:19;10.80;99.90
4896;DHT22;2463;49.948;8.472;2023-12-22T14:39:47;10.80;99.90
4896;DHT22;2463;49.948;8.472;2023-12-22T14:42:14;10.80;99.90
4896;DHT22;2463;49.948;8.472;2023-12-22T14:44:41;10.80;99.90
4896;DHT22;2463;49.948;8.472;2023-12-22T14:49:39;10.80;99.90
4896;DHT22;2463;49.948;8.472;2023-12-22T14:52:06;10.80;99.90
4896;DHT22;2463;49.948;8.472;2023-12-22T14:54:32;10.80;99.90
4896;DHT22;2463;49.948;8.472;2023-12-22T14:56:59;10.80;99.90
4896;DHT22;2463;49.948;8.472;2023-12-22T14:59:26;10.80;99.90
4896;DHT22;2463;49.948;8.472;2023-12-22T15:01:53;10.80;99.90
4896;DHT22;2463;49.948;8.472;2023-12-22T15:04:20;10.80;99.90
4896;DHT22;2463;49.948;8.472;2023-12-22T15:06:48;10.80;99.90
4896;DHT22;2463;49.948;8.472;2023-12-22T15:09:26;10.80;99.90
4896;DHT22;2463;49.948;8.472;2023-12-22T15:11:53;10.80;99.90
4896;DHT22;2463;49.948;8.472;2023-12-22T15:14:21;10.80;99.90
4896;DHT22;2463;49.948;8.472;2023-12-22T15:16:50;10.80;99.90
4896;DHT22;2463;49.948;8.472;2023-12-22T15:19:20;10.80;99.90
4896;DHT22;2463;49.948;8.472;2023-12-22T15:21:47;10.90;99.90
4896;DHT22;2463;49.948;8.472;2023-12-22T15:24:13;10.80;99.90
4896;DHT22;2463;49.948;8.472;2023-12-22T15:26:40;10.80;99.90
4896;DHT22;2463;49.948;8.472;2023-12-22T15:29:08;10.80;99.90
4896;DHT22;2463;49.948;8.472;2023-12-22T15:31:35;10.80;99.90
4896;DHT22;2463;49.948;8.472;2023-12-22T15:34:04;10.80;99.90
4896;DHT22;2463;49.948;8.472;2023-12-22T15:36:33;10.80;99.90
4896;DHT22;2463;49.948;8.472;2023-12-22T15:39:00;10.70;99.90
4896;DHT22;2463;49.948;8.472;2023-12-22T15:41:30;10.70;99.90
4896;DHT22;2463;49.948;8.472;2023-12-22T15:43:57;10.70;99.90
4896;DHT22;2463;49.948;8.472;2023-12-22T15:46:24;10.70;99.90
4896;DHT22;2463;49.948;8.472;2023-12-22T15:48:51;10.70;99.90
4896;DHT22;2463;49.948;8.472;2023-12-22T15:51:18;10.70;99.90
4896;DHT22;2463;49.948;8.472;2023-12-22T15:53:46;10.70;99.90
4896;DHT22;2463;49.948;8.472;2023-12-22T15:56:13;10.70;99.90
4896;DHT22;2463;49.948;8.472;2023-12-22T15:58:41;10.80;99.90
4896;DHT22;2463;49.948;8.472;2023-12-22T16:01:09;10.70;99.90
4896;DHT22;2463;49.948;8.472;2023-12-22T16:03:38;10.70;99.90
4896;DHT22;2463;49.948;8.472;2023-12-22T16:06:08;10.70;99.90
4896;DHT22;2463;49.948;8.472;2023-12-22T16:08:35;10.70;99.90
4896;DHT22;2463;49.948;8.472;2023-12-22T16:11:03;10.70;99.90
4896;DHT22;2463;49.948;8.472;2023-12-22T16:13:31;10.70;99.90
4896;DHT22;2463;49.948;8.472;2023-12-22T16:15:59;10.80;99.90
4896;DHT22;2463;49.948;8.472;2023-12-22T16:18:26;10.80;99.90
4896;DHT22;2463;49.948;8.472;2023-12-22T16:20:53;10.80;99.90
4896;DHT22;2463;49.948;8.472;2023-12-22T16:23:20;10.70;99.90
4896;DHT22;2463;49.948;8.472;2023-12-22T16:25:52;10.70;99.90
4896;DHT22;2463;49.948;8.472;2023-12-22T16:28:20;10.60;99.90
4896;DHT22;2463;49.948;8.472;2023-12-22T16:30:47;10.60;99.90
4896;DHT22;2463;49.948;8.472;2023-12-22T16:33:15;10.60;99.90